sensor_id;sensor_type;location;lat;lon;timestamp;temperature;humidity
33105;DHT22;19476;51.448;6.674;2024-01-15T00:02:10;7.30;59.30
33105;DHT22;19476;51.448;6.674;2024-01-15T00:04:38;7.40;59.30
33105;DHT22;19476;51.448;6.674;2024-01-15T00:07:04;7.40;59.30
33105;DHT22;19476;51.448;6.674;2024-01-15T00:09:30;7.40;59.20
33105;DHT22;19476;51.448;6.674;2024-01-15T00:11:55;7.40;59.10
33105;DHT22;19476;51.448;6.674;2024-01-15T00:14:22;7.40;59.20
33105;DHT22;19476;51.448;6.674;2024-01-15T00:16:47;7.50;59.20
33105;DHT22;19476;51.448;6.674;2024-01-15T00:19:16;7.50;59.20
33105;DHT22;19476;51.448;6.674;2024-01-15T00:21:41;7.50;59.20
33105;DHT22;19476;51.448;6.674;2024-01-15T00:24:07;7.50;59.00
33105;DHT22;19476;51.448;6.674;2024-01-15T00:26:33;7.50;59.10
33105;DHT22;19476;51.448;6.674;2024-01-15T00:28:59;7.60;59.10
33105;DHT22;19476;51.448;6.674;2024-01-15T00:31:24;7.60;59.10
33105;DHT22;19476;51.448;6.674;2024-01-15T00:33:50;7.60;59.10
33105;DHT22;19476;51.448;6.674;2024-01-15T00:36:16;7.60;59.10
33105;DHT22;19476;51.448;6.674;2024-01-15T00:38:42;7.50;59.10
33105;DHT22;19476;51.448;6.674;2024-01-15T00:41:07;7.50;59.10
33105;DHT22;19476;51.448;6.674;2024-01-15T00:43:33;7.50;59.10
33105;DHT22;19476;51.448;6.674;2024-01-15T00:46:01;7.50;59.60
33105;DHT22;19476;51.448;6.674;2024-01-15T00:48:26;7.50;59.70
33105;DHT22;19476;51.448;6.674;2024-01-15T00:50:52;7.50;59.10
33105;DHT22;19476;51.448;6.674;2024-01-15T00:53:19;7.60;59.20
33105;DHT22;19476;51.448;6.674;2024-01-15T00:55:50;7.60;59.10
33105;DHT22;19476;51.448;6.674;2024-01-15T00:58:16;7.50;59.20
33105;DHT22;19476;51.448;6.674;2024-01-15T01:00:41;7.60;59.10
33105;DHT22;19476;51.448;6.674;2024-01-15T01:03:07;7.60;59.10
33105;DHT22;19476;51.448;6.674;2024-01-15T01:05:34;7.60;59.30
33105;DHT22;19476;51.448;6.674;2024-01-15T01:07:59;7.60;59.40
33105;DHT22;19476;51.448;6.674;2024-01-15T01:10:25;7.60;59.30
33105;DHT22;19476;51.448;6.674;2024-01-15T01:12:50;7.60;59.30
33105;DHT22;19476;51.448;6.674;2024-01-15T01:15:16;7.60;59.20
33105;DHT22;19476;51.448;6.674;2024-01-15T01:17:42;7.70;59.20
33105;DHT22;19476;51.448;6.674;2024-01-15T01:20:07;7.70;59.10
33105;DHT22;19476;51.448;6.674;2024-01-15T01:22:34;7.70;59.10
33105;DHT22;19476;51.448;6.674;2024-01-15T01:25:00;7.70;59.10
33105;DHT22;19476;51.448;6.674;2024-01-15T01:27:25;7.70;59.00
33105;DHT22;19476;51.448;6.674;2024-01-15T01:29:51;7.70;58.90
33105;DHT22;19476;51.448;6.674;2024-01-15T01:32:17;7.80;58.80
33105;DHT22;19476;51.448;6.674;2024-01-15T01:34:43;7.70;58.80
33105;DHT22;19476;51.448;6.674;2024-01-15T01:37:09;7.80;58.80
33105;DHT22;19476;51.448;6.674;2024-01-15T01:39:34;7.70;58.80
33105;DHT22;19476;51.448;6.674;2024-01-15T01:42:00;7.80;58.70
33105;DHT22;19476;51.448;6.674;2024-01-15T01:44:26;7.80;58.70
33105;DHT22;19476;51.448;6.674;2024-01-15T01:46:51;7.80;58.60
33105;DHT22;19476;51.448;6.674;2024-01-15T01:49:17;7.70;58.60
33105;DHT22;19476;51.448;6.674;2024-01-15T01:51:43;7.80;58.80
33105;DHT22;19476;51.448;6.674;2024-01-15T01:54:09;7.80;58.80
33105;DHT22;19476;51.448;6.674;2024-01-15T01:56:37;7.80;58.60
33105;DHT22;19476;51.448;6.674;2024-01-15T01:59:03;7.80;58.60
33105;DHT22;19476;51.448;6.674;2024-01-15T02:01:30;7.80;58.60
33105;DHT22;19476;51.448;6.674;2024-01-15T02:03:56;7.80;58.60
33105;DHT22;19476;51.448;6.674;2024-01-15T02:06:22;7.80;58.50
33105;DHT22;19476;51.448;6.674;2024-01-15T02:08:48;7.80;58.50
33105;DHT22;19476;51.448;6.674;2024-01-15T02:11:13;7.80;58.50
33105;DHT22;19476;51.448;6.674;2024-01-15T02:13:39;7.80;58.40
33105;DHT22;19476;51.448;6.674;2024-01-15T02:16:05;7.80;58.60
33105;DHT22;19476;51.448;6.674;2024-01-15T02:18:39;7.80;58.50
33105;DHT22;19476;51.448;6.674;2024-01-15T02:21:05;7.80;58.50
33105;DHT22;19476;51.448;6.674;2024-01-15T02:23:30;7.80;58.50
33105;DHT22;19476;51.448;6.674;2024-01-15T02:25:56;7.80;58.60
33105;DHT22;19476;51.448;6.674;2024-01-15T02:28:21;7.80;59.10
33105;DHT22;19476;51.448;6.674;2024-01-15T02:30:47;7.80;58.50
33105;DHT22;19476;51.448;6.674;2024-01-15T02:33:12;7.80;58.50
33105;DHT22;19476;51.448;6.674;2024-01-15T02:35:38;7.80;58.70
33105;DHT22;19476;51.448;6.674;2024-01-15T02:38:04;7.80;58.50
33105;DHT22;19476;51.448;6.674;2024-01-15T02:40:29;7.80;58.70
33105;DHT22;19476;51.448;6.674;2024-01-15T02:42:55;7.80;58.60
33105;DHT22;19476;51.448;6.674;2024-01-15T02:45:21;7.90;58.60
33105;DHT22;19476;51.448;6.674;2024-01-15T02:47:46;7.90;58.60
33105;DHT22;19476;51.448;6.674;2024-01-15T02:50:12;7.80;58.50
33105;DHT22;19476;51.448;6.674;2024-01-15T02:52:38;7.90;59.10
33105;DHT22;19476;51.448;6.674;2024-01-15T02:55:04;7.80;58.50
33105;DHT22;19476;51.448;6.674;2024-01-15T02:57:30;7.80;58.40
33105;DHT22;19476;51.448;6.674;2024-01-15T02:59:55;7.80;58.20
33105;DHT22;19476;51.448;6.674;2024-01-15T03:02:21;7.80;58.20
33105;DHT22;19476;51.448;6.674;2024-01-15T03:04:46;7.80;58.20
33105;DHT22;19476;51.448;6.674;2024-01-15T03:07:12;7.80;58.30
33105;DHT22;19476;51.448;6.674;2024-01-15T03:09:37;7.80;58.40
33105;DHT22;19476;51.448;6.674;2024-01-15T03:12:03;7.80;58.40
33105;DHT22;19476;51.448;6.674;2024-01-15T03:14:29;7.70;58.50
33105;DHT22;19476;51.448;6.674;2024-01-15T03:16:55;7.70;58.40
33105;DHT22;19476;51.448;6.674;2024-01-15T03:19:20;7.80;58.40
33105;DHT22;19476;51.448;6.674;2024-01-15T03:21:46;7.80;58.50
33105;DHT22;19476;51.448;6.674;2024-01-15T03:24:11;7.80;58.40
33105;DHT22;19476;51.448;6.674;2024-01-15T03:26:37;7.80;58.90
33105;DHT22;19476;51.448;6.674;2024-01-15T03:29:03;7.80;58.20
33105;DHT22;19476;51.448;6.674;2024-01-15T03:31:28;7.80;58.10
33105;DHT22;19476;51.448;6.674;2024-01-15T03:33:54;7.80;58.10
33105;DHT22;19476;51.448;6.674;2024-01-15T03:36:20;7.80;58.20
33105;DHT22;19476;51.448;6.674;2024-01-15T03:38:45;7.80;58.00
33105;DHT22;19476;51.448;6.674;2024-01-15T03:41:11;7.80;58.00
33105;DHT22;19476;51.448;6.674;2024-01-15T03:43:36;7.80;58.00
33105;DHT22;19476;51.448;6.674;2024-01-15T03:46:02;7.70;58.00
33105;DHT22;19476;51.448;6.674;2024-01-15T03:48:28;7.70;58.10
33105;DHT22;19476;51.448;6.674;2024-01-15T03:50:53;7.70;58.10
33105;DHT22;19476;51.448;6.674;2024-01-15T03:53:21;7.70;58.20
33105;DHT22;19476;51.448;6.674;2024-01-15T03:55:47;7.70;58.40
33105;DHT22;19476;51.448;6.674;2024-01-15T03:58:12;7.70;58.30
33105;DHT22;19476;51.448;6.674;2024-01-15T04:00:40;7.70;58.40
33105;DHT22;19476;51.448;6.674;2024-01-15T04:03:05;7.70;58.40
33105;DHT22;19476;51.448;6.674;2024-01-15T04:05:31;7.70;58.10
33105;DHT22;19476;51.448;6.674;2024-01-15T04:07:57;7.70;58.10
33105;DHT22;19476;51.448;6.674;2024-01-15T04:10:22;7.70;58.10
33105;DHT22;19476;51.448;6.674;2024-01-15T04:12:48;7.30;57.80
33105;DHT22;19476;51.448;6.674;2024-01-15T04:15:13;7.70;58.10
33105;DHT22;19476;51.448;6.674;2024-01-15T04:17:39;7.70;58.10
33105;DHT22;19476;51.448;6.674;2024-01-15T04:20:05;7.80;58.20
33105;DHT22;19476;51.448;6.674;2024-01-15T04:22:30;7.80;58.20
33105;DHT22;19476;51.448;6.674;2024-01-15T04:24:56;7.70;58.00
33105;DHT22;19476;51.448;6.674;2024-01-15T04:27:21;7.80;58.00
33105;DHT22;19476;51.448;6.674;2024-01-15T04:29:47;7.80;58.00
33105;DHT22;19476;51.448;6.674;2024-01-15T04:32:13;7.80;58.00
33105;DHT22;19476;51.448;6.674;2024-01-15T04:34:38;7.80;57.80
33105;DHT22;19476;51.448;6.674;2024-01-15T04:37:04;7.80;57.70
33105;DHT22;19476;51.448;6.674;2024-01-15T04:39:29;7.80;57.60
33105;DHT22;19476;51.448;6.674;2024-01-15T04:41:55;7.80;57.50
33105;DHT22;19476;51.448;6.674;2024-01-15T04:44:21;7.80;57.70
33105;DHT22;19476;51.448;6.674;2024-01-15T04:46:46;7.70;57.60
33105;DHT22;19476;51.448;6.674;2024-01-15T04:49:12;7.80;57.70
33105;DHT22;19476;51.448;6.674;2024-01-15T04:51:37;7.80;57.70
33105;DHT22;19476;51.448;6.674;2024-01-15T04:54:03;7.70;57.60
33105;DHT22;19476;51.448;6.674;2024-01-15T04:56:29;7.80;57.70
33105;DHT22;19476;51.448;6.674;2024-01-15T04:58:54;7.80;57.70
33105;DHT22;19476;51.448;6.674;2024-01-15T05:01:20;7.80;57.60
33105;DHT22;19476;51.448;6.674;2024-01-15T05:03:46;7.80;57.60
33105;DHT22;19476;51.448;6.674;2024-01-15T05:06:11;7.80;57.60
33105;DHT22;19476;51.448;6.674;2024-01-15T05:08:37;7.80;57.60
33105;DHT22;19476;51.448;6.674;2024-01-15T05:11:02;7.80;57.60
33105;DHT22;19476;51.448;6.674;2024-01-15T05:13:28;7.80;57.60
33105;DHT22;19476;51.448;6.674;2024-01-15T05:15:53;7.90;57.70
33105;DHT22;19476;51.448;6.674;2024-01-15T05:18:19;7.90;57.50
33105;DHT22;19476;51.448;6.674;2024-01-15T05:20:45;7.90;57.40
33105;DHT22;19476;51.448;6.674;2024-01-15T05:23:10;8.00;57.40
33105;DHT22;19476;51.448;6.674;2024-01-15T05:25:36;8.00;57.40
33105;DHT22;19476;51.448;6.674;2024-01-15T05:28:01;8.00;57.20
33105;DHT22;19476;51.448;6.674;2024-01-15T05:30:27;8.00;57.10
33105;DHT22;19476;51.448;6.674;2024-01-15T05:32:53;8.00;57.00
33105;DHT22;19476;51.448;6.674;2024-01-15T05:35:19;8.10;57.20
33105;DHT22;19476;51.448;6.674;2024-01-15T05:37:44;8.00;57.10
33105;DHT22;19476;51.448;6.674;2024-01-15T05:40:11;8.00;57.20
33105;DHT22;19476;51.448;6.674;2024-01-15T05:42:37;8.10;57.30
33105;DHT22;19476;51.448;6.674;2024-01-15T05:45:03;8.10;57.20
33105;DHT22;19476;51.448;6.674;2024-01-15T05:47:30;8.10;57.10
33105;DHT22;19476;51.448;6.674;2024-01-15T05:49:56;8.10;56.90
33105;DHT22;19476;51.448;6.674;2024-01-15T05:52:21;8.10;57.00
33105;DHT22;19476;51.448;6.674;2024-01-15T05:54:47;8.10;57.00
33105;DHT22;19476;51.448;6.674;2024-01-15T05:57:13;8.10;56.90
33105;DHT22;19476;51.448;6.674;2024-01-15T05:59:38;8.10;56.90
33105;DHT22;19476;51.448;6.674;2024-01-15T06:02:04;8.10;57.00
33105;DHT22;19476;51.448;6.674;2024-01-15T06:04:29;8.10;56.90
33105;DHT22;19476;51.448;6.674;2024-01-15T06:06:55;8.10;56.90
33105;DHT22;19476;51.448;6.674;2024-01-15T06:09:20;8.10;57.00
33105;DHT22;19476;51.448;6.674;2024-01-15T06:11:46;8.10;57.10
33105;DHT22;19476;51.448;6.674;2024-01-15T06:14:11;8.10;57.10
33105;DHT22;19476;51.448;6.674;2024-01-15T06:16:37;8.10;57.10
33105;DHT22;19476;51.448;6.674;2024-01-15T06:19:03;8.10;57.10
33105;DHT22;19476;51.448;6.674;2024-01-15T06:21:28;8.20;57.30
33105;DHT22;19476;51.448;6.674;2024-01-15T06:23:54;8.20;57.20
33105;DHT22;19476;51.448;6.674;2024-01-15T06:26:24;8.20;57.30
33105;DHT22;19476;51.448;6.674;2024-01-15T06:28:50;8.30;57.40
33105;DHT22;19476;51.448;6.674;2024-01-15T06:31:16;8.40;57.10
33105;DHT22;19476;51.448;6.674;2024-01-15T06:33:41;8.40;56.50
33105;DHT22;19476;51.448;6.674;2024-01-15T06:36:07;8.40;56.50
33105;DHT22;19476;51.448;6.674;2024-01-15T06:38:33;8.40;56.70
33105;DHT22;19476;51.448;6.674;2024-01-15T06:40:58;8.40;56.30
33105;DHT22;19476;51.448;6.674;2024-01-15T06:43:24;8.40;56.30
33105;DHT22;19476;51.448;6.674;2024-01-15T06:45:49;8.30;56.10
33105;DHT22;19476;51.448;6.674;2024-01-15T06:48:15;8.30;56.10
33105;DHT22;19476;51.448;6.674;2024-01-15T06:50:42;8.30;56.20
33105;DHT22;19476;51.448;6.674;2024-01-15T06:53:08;8.20;56.40
33105;DHT22;19476;51.448;6.674;2024-01-15T06:55:33;8.20;56.40
33105;DHT22;19476;51.448;6.674;2024-01-15T06:57:59;8.10;56.60
33105;DHT22;19476;51.448;6.674;2024-01-15T07:00:24;8.10;56.80
33105;DHT22;19476;51.448;6.674;2024-01-15T07:02:50;8.00;56.80
33105;DHT22;19476;51.448;6.674;2024-01-15T07:05:15;8.00;57.00
33105;DHT22;19476;51.448;6.674;2024-01-15T07:07:41;8.00;57.20
33105;DHT22;19476;51.448;6.674;2024-01-15T07:10:07;7.90;57.30
33105;DHT22;19476;51.448;6.674;2024-01-15T07:12:33;7.90;57.50
33105;DHT22;19476;51.448;6.674;2024-01-15T07:14:59;7.90;57.50
33105;DHT22;19476;51.448;6.674;2024-01-15T07:17:24;7.90;57.50
33105;DHT22;19476;51.448;6.674;2024-01-15T07:19:50;7.80;57.50
33105;DHT22;19476;51.448;6.674;2024-01-15T07:22:15;7.80;57.80
33105;DHT22;19476;51.448;6.674;2024-01-15T07:24:42;7.80;57.90
33105;DHT22;19476;51.448;6.674;2024-01-15T07:27:08;7.80;57.90
33105;DHT22;19476;51.448;6.674;2024-01-15T07:29:34;7.80;57.90
33105;DHT22;19476;51.448;6.674;2024-01-15T07:32:03;7.80;57.90
33105;DHT22;19476;51.448;6.674;2024-01-15T07:34:29;7.80;58.00
33105;DHT22;19476;51.448;6.674;2024-01-15T07:36:54;7.80;57.90
33105;DHT22;19476;51.448;6.674;2024-01-15T07:39:20;7.80;57.90
33105;DHT22;19476;51.448;6.674;2024-01-15T07:41:45;7.80;58.00
33105;DHT22;19476;51.448;6.674;2024-01-15T07:44:11;7.80;57.90
33105;DHT22;19476;51.448;6.674;2024-01-15T07:46:36;7.80;57.80
33105;DHT22;19476;51.448;6.674;2024-01-15T07:49:02;7.80;57.80
33105;DHT22;19476;51.448;6.674;2024-01-15T07:51:28;7.70;57.90
33105;DHT22;19476;51.448;6.674;2024-01-15T07:53:54;7.70;58.00
33105;DHT22;19476;51.448;6.674;2024-01-15T07:56:23;7.70;58.10
33105;DHT22;19476;51.448;6.674;2024-01-15T07:58:49;7.60;58.20
33105;DHT22;19476;51.448;6.674;2024-01-15T08:01:15;7.60;58.30
33105;DHT22;19476;51.448;6.674;2024-01-15T08:03:40;7.60;58.30
33105;DHT22;19476;51.448;6.674;2024-01-15T08:06:06;7.50;58.30
33105;DHT22;19476;51.448;6.674;2024-01-15T08:08:31;7.50;58.40
33105;DHT22;19476;51.448;6.674;2024-01-15T08:10:57;7.50;58.60
33105;DHT22;19476;51.448;6.674;2024-01-15T08:13:22;7.30;58.50
33105;DHT22;19476;51.448;6.674;2024-01-15T08:15:48;7.50;58.70
33105;DHT22;19476;51.448;6.674;2024-01-15T08:18:15;7.50;58.70
33105;DHT22;19476;51.448;6.674;2024-01-15T08:20:41;7.50;58.80
33105;DHT22;19476;51.448;6.674;2024-01-15T08:23:09;7.50;58.80
33105;DHT22;19476;51.448;6.674;2024-01-15T08:25:35;7.50;58.80
33105;DHT22;19476;51.448;6.674;2024-01-15T08:28:01;7.50;58.80
33105;DHT22;19476;51.448;6.674;2024-01-15T08:30:26;7.50;58.90
33105;DHT22;19476;51.448;6.674;2024-01-15T08:32:53;7.50;58.90
33105;DHT22;19476;51.448;6.674;2024-01-15T08:35:19;7.50;58.90
33105;DHT22;19476;51.448;6.674;2024-01-15T08:37:53;7.50;58.90
33105;DHT22;19476;51.448;6.674;2024-01-15T08:40:19;7.60;59.00
33105;DHT22;19476;51.448;6.674;2024-01-15T08:42:44;7.60;58.90
33105;DHT22;19476;51.448;6.674;2024-01-15T08:45:13;7.60;59.10
33105;DHT22;19476;51.448;6.674;2024-01-15T08:47:39;7.60;58.80
33105;DHT22;19476;51.448;6.674;2024-01-15T08:50:04;7.60;58.60
33105;DHT22;19476;51.448;6.674;2024-01-15T08:52:30;7.60;58.60
33105;DHT22;19476;51.448;6.674;2024-01-15T08:54:56;7.60;58.50
33105;DHT22;19476;51.448;6.674;2024-01-15T08:57:21;7.70;58.60
33105;DHT22;19476;51.448;6.674;2024-01-15T08:59:47;7.70;58.50
33105;DHT22;19476;51.448;6.674;2024-01-15T09:02:13;7.60;58.30
33105;DHT22;19476;51.448;6.674;2024-01-15T09:04:39;7.70;58.40
33105;DHT22;19476;51.448;6.674;2024-01-15T09:07:04;7.70;58.30
33105;DHT22;19476;51.448;6.674;2024-01-15T09:09:30;7.70;58.30
33105;DHT22;19476;51.448;6.674;2024-01-15T09:11:55;7.70;58.40
33105;DHT22;19476;51.448;6.674;2024-01-15T09:14:21;7.70;58.40
33105;DHT22;19476;51.448;6.674;2024-01-15T09:16:47;7.80;58.50
33105;DHT22;19476;51.448;6.674;2024-01-15T09:19:13;7.80;58.40
33105;DHT22;19476;51.448;6.674;2024-01-15T09:21:39;7.80;58.40
33105;DHT22;19476;51.448;6.674;2024-01-15T09:24:05;7.90;58.50
33105;DHT22;19476;51.448;6.674;2024-01-15T09:26:31;7.90;58.50
33105;DHT22;19476;51.448;6.674;2024-01-15T09:28:57;8.00;58.40
33105;DHT22;19476;51.448;6.674;2024-01-15T09:31:22;8.00;58.40
33105;DHT22;19476;51.448;6.674;2024-01-15T09:33:48;8.00;58.30
33105;DHT22;19476;51.448;6.674;2024-01-15T09:36:14;8.10;58.20
33105;DHT22;19476;51.448;6.674;2024-01-15T09:38:40;8.10;57.80
33105;DHT22;19476;51.448;6.674;2024-01-15T09:41:06;8.10;57.60
33105;DHT22;19476;51.448;6.674;2024-01-15T09:43:32;8.10;57.50
33105;DHT22;19476;51.448;6.674;2024-01-15T09:45:58;8.10;57.50
33105;DHT22;19476;51.448;6.674;2024-01-15T09:48:24;8.10;57.60
33105;DHT22;19476;51.448;6.674;2024-01-15T09:50:50;8.10;57.50
33105;DHT22;19476;51.448;6.674;2024-01-15T09:53:15;8.20;57.60
33105;DHT22;19476;51.448;6.674;2024-01-15T09:55:41;8.20;57.40
33105;DHT22;19476;51.448;6.674;2024-01-15T09:58:07;8.10;57.30
33105;DHT22;19476;51.448;6.674;2024-01-15T10:00:33;8.20;57.30
33105;DHT22;19476;51.448;6.674;2024-01-15T10:03:02;8.10;57.30
33105;DHT22;19476;51.448;6.674;2024-01-15T10:05:28;8.10;57.20
33105;DHT22;19476;51.448;6.674;2024-01-15T10:07:54;8.10;57.20
33105;DHT22;19476;51.448;6.674;2024-01-15T10:10:21;8.00;57.20
33105;DHT22;19476;51.448;6.674;2024-01-15T10:12:47;8.00;57.30
33105;DHT22;19476;51.448;6.674;2024-01-15T10:15:13;8.00;57.80
33105;DHT22;19476;51.448;6.674;2024-01-15T10:17:38;8.00;57.30
33105;DHT22;19476;51.448;6.674;2024-01-15T10:20:10;8.00;57.40
33105;DHT22;19476;51.448;6.674;2024-01-15T10:22:39;8.00;57.50
33105;DHT22;19476;51.448;6.674;2024-01-15T10:25:05;8.00;57.50
33105;DHT22;19476;51.448;6.674;2024-01-15T10:27:30;7.90;57.30
33105;DHT22;19476;51.448;6.674;2024-01-15T10:29:59;8.00;57.40
33105;DHT22;19476;51.448;6.674;2024-01-15T10:32:25;7.90;57.50
33105;DHT22;19476;51.448;6.674;2024-01-15T10:34:52;7.90;57.60
33105;DHT22;19476;51.448;6.674;2024-01-15T10:37:17;7.90;57.60
33105;DHT22;19476;51.448;6.674;2024-01-15T10:39:43;7.90;57.50
33105;DHT22;19476;51.448;6.674;2024-01-15T10:42:09;7.90;57.50
33105;DHT22;19476;51.448;6.674;2024-01-15T10:44:35;7.80;57.60
33105;DHT22;19476;51.448;6.674;2024-01-15T10:47:01;7.90;57.70
33105;DHT22;19476;51.448;6.674;2024-01-15T10:49:26;7.80;57.70
33105;DHT22;19476;51.448;6.674;2024-01-15T10:51:53;7.80;57.70
33105;DHT22;19476;51.448;6.674;2024-01-15T10:54:19;7.80;57.90
33105;DHT22;19476;51.448;6.674;2024-01-15T10:56:46;7.80;58.10
33105;DHT22;19476;51.448;6.674;2024-01-15T10:59:12;7.90;58.20
33105;DHT22;19476;51.448;6.674;2024-01-15T11:01:38;7.90;58.20
33105;DHT22;19476;51.448;6.674;2024-01-15T11:04:03;7.90;58.10
33105;DHT22;19476;51.448;6.674;2024-01-15T11:06:29;7.90;58.30
33105;DHT22;19476;51.448;6.674;2024-01-15T11:09:06;7.90;58.40
33105;DHT22;19476;51.448;6.674;2024-01-15T11:11:34;8.00;58.30
33105;DHT22;19476;51.448;6.674;2024-01-15T11:14:00;7.90;58.20
33105;DHT22;19476;51.448;6.674;2024-01-15T11:16:26;8.00;58.00
33105;DHT22;19476;51.448;6.674;2024-01-15T11:19:12;8.00;57.90
33105;DHT22;19476;51.448;6.674;2024-01-15T11:21:41;8.00;57.90
33105;DHT22;19476;51.448;6.674;2024-01-15T11:24:08;8.00;57.90
33105;DHT22;19476;51.448;6.674;2024-01-15T11:26:46;8.00;58.10
33105;DHT22;19476;51.448;6.674;2024-01-15T11:31:57;8.00;58.20
33105;DHT22;19476;51.448;6.674;2024-01-15T11:37:08;8.00;57.90
33105;DHT22;19476;51.448;6.674;2024-01-15T11:39:43;8.00;57.70
33105;DHT22;19476;51.448;6.674;2024-01-15T11:42:09;7.90;58.20
33105;DHT22;19476;51.448;6.674;2024-01-15T11:44:35;7.90;57.70
33105;DHT22;19476;51.448;6.674;2024-01-15T11:47:05;7.90;57.90
33105;DHT22;19476;51.448;6.674;2024-01-15T11:52:16;7.80;58.10
33105;DHT22;19476;51.448;6.674;2024-01-15T11:54:42;7.80;58.30
33105;DHT22;19476;51.448;6.674;2024-01-15T11:57:13;7.80;58.40
33105;DHT22;19476;51.448;6.674;2024-01-15T11:59:42;7.80;58.70
33105;DHT22;19476;51.448;6.674;2024-01-15T12:02:08;7.80;58.60
33105;DHT22;19476;51.448;6.674;2024-01-15T12:04:36;7.80;58.50
33105;DHT22;19476;51.448;6.674;2024-01-15T12:07:02;7.90;58.40
33105;DHT22;19476;51.448;6.674;2024-01-15T12:09:27;7.90;58.40
33105;DHT22;19476;51.448;6.674;2024-01-15T12:11:54;7.90;58.40
33105;DHT22;19476;51.448;6.674;2024-01-15T12:14:24;8.00;58.60
33105;DHT22;19476;51.448;6.674;2024-01-15T12:16:50;8.00;58.60
33105;DHT22;19476;51.448;6.674;2024-01-15T12:19:15;8.10;58.60
33105;DHT22;19476;51.448;6.674;2024-01-15T12:21:41;8.10;58.50
33105;DHT22;19476;51.448;6.674;2024-01-15T12:24:07;8.20;58.50
33105;DHT22;19476;51.448;6.674;2024-01-15T12:26:33;8.20;58.40
33105;DHT22;19476;51.448;6.674;2024-01-15T12:29:01;8.20;58.00
33105;DHT22;19476;51.448;6.674;2024-01-15T12:31:27;8.20;57.90
33105;DHT22;19476;51.448;6.674;2024-01-15T12:33:53;8.20;57.80
33105;DHT22;19476;51.448;6.674;2024-01-15T12:36:21;8.30;57.80
33105;DHT22;19476;51.448;6.674;2024-01-15T12:38:46;8.30;58.50
33105;DHT22;19476;51.448;6.674;2024-01-15T12:41:12;8.30;57.90
33105;DHT22;19476;51.448;6.674;2024-01-15T12:43:38;8.40;57.90
33105;DHT22;19476;51.448;6.674;2024-01-15T12:46:03;8.40;57.80
33105;DHT22;19476;51.448;6.674;2024-01-15T12:48:29;8.40;57.50
33105;DHT22;19476;51.448;6.674;2024-01-15T12:50:55;8.30;57.10
33105;DHT22;19476;51.448;6.674;2024-01-15T12:53:20;8.40;57.10
33105;DHT22;19476;51.448;6.674;2024-01-15T12:55:46;8.30;57.10
33105;DHT22;19476;51.448;6.674;2024-01-15T12:58:12;8.30;57.10
33105;DHT22;19476;51.448;6.674;2024-01-15T13:00:39;8.30;57.20
33105;DHT22;19476;51.448;6.674;2024-01-15T13:03:04;8.30;57.30
33105;DHT22;19476;51.448;6.674;2024-01-15T13:05:31;8.30;57.40
33105;DHT22;19476;51.448;6.674;2024-01-15T13:07:58;8.30;57.50
33105;DHT22;19476;51.448;6.674;2024-01-15T13:10:24;8.30;57.40
33105;DHT22;19476;51.448;6.674;2024-01-15T13:12:50;8.40;57.50
33105;DHT22;19476;51.448;6.674;2024-01-15T13:15:16;8.40;57.30
33105;DHT22;19476;51.448;6.674;2024-01-15T13:17:42;8.40;57.30
33105;DHT22;19476;51.448;6.674;2024-01-15T13:20:08;8.40;57.30
33105;DHT22;19476;51.448;6.674;2024-01-15T13:22:33;8.40;57.30
33105;DHT22;19476;51.448;6.674;2024-01-15T13:24:59;8.40;57.30
33105;DHT22;19476;51.448;6.674;2024-01-15T13:27:25;8.40;57.50
33105;DHT22;19476;51.448;6.674;2024-01-15T13:29:51;8.50;57.50
33105;DHT22;19476;51.448;6.674;2024-01-15T13:32:17;8.40;57.50
33105;DHT22;19476;51.448;6.674;2024-01-15T13:34:46;8.50;57.40
33105;DHT22;19476;51.448;6.674;2024-01-15T13:37:12;8.50;57.20
33105;DHT22;19476;51.448;6.674;2024-01-15T13:39:38;8.50;57.10
33105;DHT22;19476;51.448;6.674;2024-01-15T13:42:06;8.50;57.00
33105;DHT22;19476;51.448;6.674;2024-01-15T13:44:31;8.50;57.10
33105;DHT22;19476;51.448;6.674;2024-01-15T13:46:57;8.50;57.10
33105;DHT22;19476;51.448;6.674;2024-01-15T13:49:23;8.50;56.80
33105;DHT22;19476;51.448;6.674;2024-01-15T13:51:49;8.60;57.10
33105;DHT22;19476;51.448;6.674;2024-01-15T13:54:15;8.60;57.10
33105;DHT22;19476;51.448;6.674;2024-01-15T13:56:41;8.60;57.20
33105;DHT22;19476;51.448;6.674;2024-01-15T13:59:07;8.60;57.30
33105;DHT22;19476;51.448;6.674;2024-01-15T14:01:34;8.70;56.90
33105;DHT22;19476;51.448;6.674;2024-01-15T14:03:59;8.70;56.80
33105;DHT22;19476;51.448;6.674;2024-01-15T14:06:25;8.80;56.60
33105;DHT22;19476;51.448;6.674;2024-01-15T14:08:51;8.80;56.40
33105;DHT22;19476;51.448;6.674;2024-01-15T14:11:17;8.80;56.40
33105;DHT22;19476;51.448;6.674;2024-01-15T14:13:43;8.80;56.20
33105;DHT22;19476;51.448;6.674;2024-01-15T14:16:08;8.80;56.20
33105;DHT22;19476;51.448;6.674;2024-01-15T14:18:35;8.80;56.20
33105;DHT22;19476;51.448;6.674;2024-01-15T14:21:00;8.80;56.10
33105;DHT22;19476;51.448;6.674;2024-01-15T14:23:26;8.80;56.00
33105;DHT22;19476;51.448;6.674;2024-01-15T14:25:51;8.80;55.90
33105;DHT22;19476;51.448;6.674;2024-01-15T14:28:17;8.80;55.90
33105;DHT22;19476;51.448;6.674;2024-01-15T14:30:43;8.80;56.00
33105;DHT22;19476;51.448;6.674;2024-01-15T14:33:08;8.80;55.80
33105;DHT22;19476;51.448;6.674;2024-01-15T14:35:34;8.80;55.90
33105;DHT22;19476;51.448;6.674;2024-01-15T14:38:00;8.80;55.60
33105;DHT22;19476;51.448;6.674;2024-01-15T14:40:25;8.80;55.30
33105;DHT22;19476;51.448;6.674;2024-01-15T14:42:51;8.80;55.40
33105;DHT22;19476;51.448;6.674;2024-01-15T14:45:17;8.80;55.40
33105;DHT22;19476;51.448;6.674;2024-01-15T14:47:42;8.70;55.30
33105;DHT22;19476;51.448;6.674;2024-01-15T14:50:09;8.70;55.20
33105;DHT22;19476;51.448;6.674;2024-01-15T14:52:35;8.70;54.80
33105;DHT22;19476;51.448;6.674;2024-01-15T14:55:01;8.60;54.60
33105;DHT22;19476;51.448;6.674;2024-01-15T14:57:27;8.60;54.70
33105;DHT22;19476;51.448;6.674;2024-01-15T14:59:52;8.60;54.60
33105;DHT22;19476;51.448;6.674;2024-01-15T15:02:18;8.50;54.60
33105;DHT22;19476;51.448;6.674;2024-01-15T15:04:44;8.40;54.70
33105;DHT22;19476;51.448;6.674;2024-01-15T15:07:09;8.40;54.90
33105;DHT22;19476;51.448;6.674;2024-01-15T15:09:36;8.30;55.20
33105;DHT22;19476;51.448;6.674;2024-01-15T15:12:03;8.30;55.40
33105;DHT22;19476;51.448;6.674;2024-01-15T15:14:30;8.20;55.40
33105;DHT22;19476;51.448;6.674;2024-01-15T15:16:57;8.20;55.60
33105;DHT22;19476;51.448;6.674;2024-01-15T15:19:23;8.20;55.70
33105;DHT22;19476;51.448;6.674;2024-01-15T15:21:49;8.10;55.90
33105;DHT22;19476;51.448;6.674;2024-01-15T15:27:18;8.10;56.10
33105;DHT22;19476;51.448;6.674;2024-01-15T15:29:43;8.00;56.10
33105;DHT22;19476;51.448;6.674;2024-01-15T15:32:09;8.00;56.40
33105;DHT22;19476;51.448;6.674;2024-01-15T15:34:34;8.00;56.40
33105;DHT22;19476;51.448;6.674;2024-01-15T15:37:00;8.00;56.30
33105;DHT22;19476;51.448;6.674;2024-01-15T15:39:26;7.90;56.30
33105;DHT22;19476;51.448;6.674;2024-01-15T15:41:52;7.90;56.20
33105;DHT22;19476;51.448;6.674;2024-01-15T15:44:17;7.90;56.10
33105;DHT22;19476;51.448;6.674;2024-01-15T15:46:43;7.90;56.10
33105;DHT22;19476;51.448;6.674;2024-01-15T15:49:09;7.80;56.20